Time;durP1;ratioP1;P1;durP2;ratioP2;P2;SDS_P1;SDS_P2;PMS_P1;PMS_P2;Temp;Humidity;BMP_temperature;BMP_pressure;BME280_temperature;BME280_humidity;BME280_pressure;Samples;Min_cycle;Max_cycle;Signal;HPM_P1;HPM_P2
2021/01/24 00:01:58;;;;;;;3.55;3.35;;;2.30;99.90;;;;;;5088708;28;20842;-76
2021/01/24 00:04:24;;;;;;;2.90;2.72;;;2.30;99.90;;;;;;5089202;28;20246;-76
2021/01/24 00:06:51;;;;;;;3.45;3.25;;;2.30;99.90;;;;;;5084966;28;20605;-75
2021/01/24 00:09:18;;;;;;;3.38;3.17;;;2.30;99.90;;;;;;5079885;28;20222;-76
2021/01/24 00:11:46;;;;;;;3.72;3.53;;;2.30;99.90;;;;;;5087317;28;20251;-76
2021/01/24 00:14:12;;;;;;;3.25;3.15;;;2.30;99.90;;;;;;5086559;28;20848;-76
2021/01/24 00:16:39;;;;;;;2.75;2.65;;;2.20;99.90;;;;;;5082327;28;20587;-75
2021/01/24 00:19:06;;;;;;;3.60;3.40;;;2.20;99.90;;;;;;5082913;28;20268;-76
2021/01/24 00:21:32;;;;;;;3.00;2.90;;;2.20;99.90;;;;;;5084132;28;20220;-75
2021/01/24 00:23:59;;;;;;;3.28;3.17;;;2.20;99.90;;;;;;5081263;28;21324;-75
2021/01/24 00:26:25;;;;;;;3.05;2.95;;;2.20;99.90;;;;;;5080556;28;20294;-76
2021/01/24 00:28:53;;;;;;;3.25;3.05;;;2.20;99.90;;;;;;5086012;28;20213;-76
2021/01/24 00:31:19;;;;;;;3.78;3.58;;;2.20;99.90;;;;;;5084139;28;20623;-76
2021/01/24 00:33:46;;;;;;;4.13;3.83;;;2.10;99.90;;;;;;5084268;28;20476;-76
2021/01/24 00:36:14;;;;;;;3.60;3.40;;;2.10;99.90;;;;;;5087742;28;20230;-76
2021/01/24 00:38:41;;;;;;;3.40;3.20;;;2.10;99.90;;;;;;5087038;28;20635;-76
2021/01/24 00:41:07;;;;;;;3.85;3.65;;;2.10;99.90;;;;;;5083081;28;20214;-76
2021/01/24 00:43:34;;;;;;;3.35;3.25;;;2.00;99.90;;;;;;5088469;28;20224;-76
2021/01/24 00:46:02;;;;;;;3.40;3.20;;;2.00;99.90;;;;;;5087318;28;20209;-76
2021/01/24 00:48:33;;;;;;;3.90;3.70;;;2.00;99.90;;;;;;5091081;28;20221;-76
2021/01/24 00:51:00;;;;;;;3.53;3.22;;;2.00;99.90;;;;;;5090413;28;20225;-78
2021/01/24 00:53:26;;;;;;;3.70;3.50;;;1.90;99.90;;;;;;5096538;28;20269;-76
2021/01/24 00:55:53;;;;;;;3.58;3.38;;;1.90;99.90;;;;;;5079125;28;20332;-75
2021/01/24 00:58:19;;;;;;;3.47;3.28;;;1.90;99.90;;;;;;5078949;28;20241;-76
2021/01/24 01:00:46;;;;;;;3.70;3.50;;;2.00;99.90;;;;;;5076748;28;20221;-76
2021/01/24 01:03:14;;;;;;;3.65;3.45;;;2.00;99.90;;;;;;5087078;28;20237;-76
2021/01/24 01:05:41;;;;;;;3.05;2.95;;;2.00;99.90;;;;;;5094543;28;20221;-76
2021/01/24 01:08:08;;;;;;;3.63;3.42;;;2.00;99.90;;;;;;5086976;28;20583;-76
2021/01/24 01:10:34;;;;;;;3.17;3.08;;;2.00;99.90;;;;;;5086061;28;20258;-76
2021/01/24 01:13:01;;;;;;;3.30;3.10;;;1.90;99.90;;;;;;5078739;28;20225;-76
2021/01/24 01:15:28;;;;;;;3.80;3.60;;;1.90;99.90;;;;;;5086074;28;20224;-76
2021/01/24 01:17:54;;;;;;;3.40;3.20;;;2.00;99.90;;;;;;5085566;28;20221;-76
2021/01/24 01:20:22;;;;;;;3.28;3.17;;;1.90;99.90;;;;;;5087920;28;20217;-76
2021/01/24 01:22:49;;;;;;;3.33;3.13;;;2.00;99.90;;;;;;5092634;28;20228;-76
2021/01/24 01:25:15;;;;;;;3.38;3.17;;;2.00;99.90;;;;;;5083765;28;20764;-76
2021/01/24 01:27:42;;;;;;;3.50;3.30;;;2.00;99.90;;;;;;5085519;28;20226;-75
2021/01/24 01:30:09;;;;;;;3.05;2.85;;;1.90;99.90;;;;;;5086096;28;20214;-75
2021/01/24 01:32:36;;;;;;;3.58;3.38;;;1.90;99.90;;;;;;5085882;28;20654;-75
2021/01/24 01:35:05;;;;;;;2.83;2.67;;;1.80;99.90;;;;;;5086590;28;20224;-75
2021/01/24 01:37:32;;;;;;;3.50;3.30;;;1.80;99.90;;;;;;5089430;28;20538;-76
2021/01/24 01:39:59;;;;;;;2.80;2.70;;;1.80;99.90;;;;;;5085354;28;20240;-76
2021/01/24 01:42:25;;;;;;;3.50;3.30;;;1.70;99.90;;;;;;5081341;28;20233;-76
2021/01/24 01:44:52;;;;;;;3.22;3.13;;;1.70;99.90;;;;;;5094998;28;20214;-76
2021/01/24 01:47:24;;;;;;;3.38;3.17;;;1.80;99.90;;;;;;5083306;28;20241;-76
2021/01/24 01:49:53;;;;;;;2.90;2.78;;;1.80;99.90;;;;;;5082440;28;20226;-75
2021/01/24 01:52:22;;;;;;;3.00;2.90;;;1.80;99.90;;;;;;5092319;28;20714;-76
2021/01/24 01:54:50;;;;;;;3.30;3.10;;;1.70;99.90;;;;;;5080954;28;20217;-75
2021/01/24 01:57:17;;;;;;;3.15;2.97;;;1.70;99.90;;;;;;5079546;28;20237;-77
2021/01/24 01:59:44;;;;;;;3.30;3.15;;;1.70;99.90;;;;;;5088604;28;20226;-76
2021/01/24 02:02:23;;;;;;;3.58;3.38;;;1.60;99.90;;;;;;5085602;28;20682;-75
2021/01/24 02:04:57;;;;;;;3.42;3.17;;;1.70;99.90;;;;;;5088327;28;20360;-75
2021/01/24 02:07:29;;;;;;;3.88;3.67;;;1.70;99.90;;;;;;5087669;28;20588;-76
2021/01/24 02:10:02;;;;;;;4.10;3.90;;;1.70;99.90;;;;;;5084677;28;20231;-76
2021/01/24 02:12:39;;;;;;;3.70;3.50;;;1.60;99.90;;;;;;5091308;27;20302;-76
2021/01/24 02:15:10;;;;;;;3.70;3.50;;;1.60;99.90;;;;;;5080707;28;20701;-75
2021/01/24 02:17:39;;;;;;;3.60;3.40;;;1.60;99.90;;;;;;5083634;28;20224;-76
2021/01/24 02:20:12;;;;;;;3.08;2.97;;;1.60;99.90;;;;;;5087733;28;20226;-75
2021/01/24 02:22:40;;;;;;;3.75;3.45;;;1.50;99.90;;;;;;5081983;28;20233;-76
2021/01/24 02:25:17;;;;;;;3.65;3.45;;;1.50;99.90;;;;;;5084386;28;20682;-74
2021/01/24 02:27:51;;;;;;;2.90;2.80;;;1.50;99.90;;;;;;5085157;28;20213;-75
2021/01/24 02:30:26;;;;;;;4.20;4.00;;;1.50;99.90;;;;;;5084441;28;20356;-76
2021/01/24 02:32:59;;;;;;;3.85;3.65;;;1.60;99.90;;;;;;5082200;28;20229;-76
2021/01/24 02:35:28;;;;;;;3.15;2.97;;;1.60;99.90;;;;;;5091438;28;20229;-76
2021/01/24 02:37:57;;;;;;;3.55;3.35;;;1.60;99.90;;;;;;5103843;28;20243;-76
2021/01/24 02:40:24;;;;;;;3.63;3.42;;;1.60;99.90;;;;;;5087587;28;20221;-76
2021/01/24 02:42:52;;;;;;;3.47;3.28;;;1.60;99.90;;;;;;5088587;28;20221;-76
2021/01/24 02:45:20;;;;;;;3.55;3.35;;;1.60;99.90;;;;;;5086432;28;20221;-76
2021/01/24 02:47:48;;;;;;;3.65;3.45;;;1.60;99.90;;;;;;5091420;28;20335;-76
2021/01/24 02:50:16;;;;;;;3.58;3.38;;;1.60;99.90;;;;;;5082166;28;20220;-76
2021/01/24 02:52:45;;;;;;;3.22;3.03;;;1.50;99.90;;;;;;5083069;28;20287;-75
2021/01/24 02:55:13;;;;;;;3.00;2.90;;;1.50;99.90;;;;;;5077133;28;20694;-75
2021/01/24 02:57:41;;;;;;;3.78;3.58;;;1.50;99.90;;;;;;5081041;28;20577;-76
2021/01/24 03:00:18;;;;;;;3.78;3.58;;;1.50;99.90;;;;;;5086816;28;20777;-76
2021/01/24 03:02:45;;;;;;;3.38;3.17;;;1.50;99.90;;;;;;5084470;28;20225;-75
2021/01/24 03:05:13;;;;;;;3.78;3.47;;;1.50;99.90;;;;;;5085347;28;20272;-75
2021/01/24 03:07:40;;;;;;;3.60;3.40;;;1.40;99.90;;;;;;5088237;28;20321;-75
2021/01/24 03:10:08;;;;;;;4.00;3.70;;;1.30;99.90;;;;;;5086143;28;20217;-76
2021/01/24 03:12:41;;;;;;;3.58;3.38;;;1.30;99.90;;;;;;5091282;28;20682;-75
2021/01/24 03:15:10;;;;;;;3.80;3.60;;;1.30;99.90;;;;;;5084179;28;20629;-76
2021/01/24 03:17:38;;;;;;;3.83;3.63;;;1.30;99.90;;;;;;5084460;28;20217;-75
2021/01/24 03:20:07;;;;;;;2.97;2.88;;;1.30;99.90;;;;;;5089210;28;20705;-75
2021/01/24 03:22:36;;;;;;;3.63;3.42;;;1.30;99.90;;;;;;5085080;28;20217;-75
2021/01/24 03:25:03;;;;;;;3.38;3.28;;;1.30;99.90;;;;;;5082628;28;20240;-76
2021/01/24 03:27:31;;;;;;;3.15;2.95;;;1.30;99.90;;;;;;5081601;28;20224;-75
2021/01/24 03:29:59;;;;;;;3.75;3.55;;;1.30;99.90;;;;;;5103480;28;20225;-75
2021/01/24 03:32:26;;;;;;;3.72;3.53;;;1.30;99.90;;;;;;5090645;28;20327;-75
2021/01/24 03:34:52;;;;;;;3.38;3.17;;;1.30;99.90;;;;;;5084177;28;20274;-77
2021/01/24 03:37:19;;;;;;;3.92;3.70;;;1.30;99.90;;;;;;5086960;28;20232;-76
2021/01/24 03:39:47;;;;;;;4.07;3.88;;;1.30;99.90;;;;;;5092956;28;20233;-75
2021/01/24 03:42:13;;;;;;;3.72;3.53;;;1.30;99.90;;;;;;5087306;28;20615;-75
2021/01/24 03:44:40;;;;;;;3.80;3.60;;;1.30;99.90;;;;;;5090835;28;20707;-75
2021/01/24 03:47:06;;;;;;;2.78;2.67;;;1.30;99.90;;;;;;5087115;28;20694;-75
2021/01/24 03:49:33;;;;;;;3.65;3.45;;;1.30;99.90;;;;;;5091035;28;20909;-75
2021/01/24 03:51:59;;;;;;;3.38;3.28;;;1.30;99.90;;;;;;5089700;28;20560;-75
2021/01/24 03:54:26;;;;;;;3.45;3.28;;;1.40;99.90;;;;;;5081303;28;20734;-76
2021/01/24 03:56:54;;;;;;;4.20;4.00;;;1.40;99.90;;;;;;5078475;28;20229;-76
2021/01/24 03:59:20;;;;;;;3.30;3.20;;;1.40;99.90;;;;;;5084273;28;20219;-76
2021/01/24 04:01:47;;;;;;;3.72;3.53;;;1.30;99.90;;;;;;5084639;28;20469;-75
2021/01/24 04:04:13;;;;;;;3.38;3.28;;;1.30;99.90;;;;;;5087114;28;20225;-75
2021/01/24 04:06:40;;;;;;;3.10;2.97;;;1.30;99.90;;;;;;5087492;28;20274;-76
2021/01/24 04:09:06;;;;;;;2.65;2.55;;;1.20;99.90;;;;;;5084571;28;20222;-75
2021/01/24 04:11:33;;;;;;;3.50;3.30;;;1.20;99.90;;;;;;5087659;28;20571;-75
2021/01/24 04:14:01;;;;;;;3.78;3.58;;;1.30;99.90;;;;;;5083195;28;20220;-75
2021/01/24 04:16:28;;;;;;;3.88;3.67;;;1.30;99.90;;;;;;5081010;28;20213;-75
2021/01/24 04:18:55;;;;;;;3.67;3.47;;;1.30;99.90;;;;;;5082230;28;20213;-76
2021/01/24 04:21:21;;;;;;;3.80;3.60;;;1.30;99.90;;;;;;5080614;28;20225;-75
2021/01/24 04:23:48;;;;;;;4.00;3.80;;;1.30;99.90;;;;;;5097712;28;20224;-75
2021/01/24 04:26:15;;;;;;;3.72;3.53;;;1.30;99.90;;;;;;5081438;28;20229;-76
2021/01/24 04:28:41;;;;;;;3.42;3.22;;;1.30;99.90;;;;;;5083691;28;20225;-75
2021/01/24 04:31:09;;;;;;;3.60;3.40;;;1.30;99.90;;;;;;5083272;28;20229;-75
2021/01/24 04:33:35;;;;;;;3.55;3.40;;;1.30;99.90;;;;;;5089512;28;20690;-76
2021/01/24 04:36:02;;;;;;;3.55;3.45;;;1.20;99.90;;;;;;5088972;28;20213;-76
2021/01/24 04:38:29;;;;;;;3.10;3.00;;;1.20;99.90;;;;;;5091638;28;20809;-76
2021/01/24 04:40:56;;;;;;;3.60;3.40;;;1.10;99.90;;;;;;5084008;28;20267;-76
2021/01/24 04:43:23;;;;;;;3.92;3.70;;;1.10;99.90;;;;;;5094794;28;20217;-76
2021/01/24 04:45:49;;;;;;;3.35;3.20;;;1.10;99.90;;;;;;5096393;28;20221;-76
2021/01/24 04:48:17;;;;;;;3.45;3.33;;;1.10;99.90;;;;;;5083411;28;20233;-75
2021/01/24 04:50:45;;;;;;;3.60;3.40;;;1.10;99.90;;;;;;5079750;28;20213;-76
2021/01/24 04:53:12;;;;;;;3.88;3.63;;;1.10;99.90;;;;;;5086274;28;20244;-75
2021/01/24 04:55:39;;;;;;;3.55;3.35;;;1.10;99.90;;;;;;5081552;28;20224;-76
2021/01/24 04:58:07;;;;;;;3.65;3.45;;;1.20;99.90;;;;;;5072737;28;20252;-76
2021/01/24 05:00:35;;;;;;;4.07;3.88;;;1.20;99.90;;;;;;5081162;28;20549;-76
2021/01/24 05:03:01;;;;;;;3.53;3.33;;;1.20;99.90;;;;;;5084070;28;20239;-76
2021/01/24 05:05:29;;;;;;;3.20;3.10;;;1.20;99.90;;;;;;5084828;28;20589;-75
2021/01/24 05:07:56;;;;;;;3.80;3.60;;;1.20;99.90;;;;;;5077668;28;20549;-75
2021/01/24 05:10:25;;;;;;;3.55;3.35;;;1.20;99.90;;;;;;5084641;28;20332;-75
2021/01/24 05:12:51;;;;;;;3.28;3.17;;;1.20;99.90;;;;;;5085884;28;20541;-75
2021/01/24 05:15:18;;;;;;;3.67;3.47;;;1.20;99.90;;;;;;5090059;28;20849;-77
2021/01/24 05:17:52;;;;;;;3.38;3.22;;;1.20;99.90;;;;;;5105247;28;20412;-77
2021/01/24 05:20:22;;;;;;;3.45;3.25;;;1.10;99.90;;;;;;5090576;28;20615;-74
2021/01/24 05:22:49;;;;;;;4.07;3.88;;;0.90;99.90;;;;;;5090409;28;20221;-76
2021/01/24 05:25:24;;;;;;;3.80;3.60;;;0.80;99.90;;;;;;5086002;28;20580;-74
2021/01/24 05:27:51;;;;;;;3.97;3.78;;;0.70;99.90;;;;;;5084235;28;20215;-76
2021/01/24 05:30:22;;;;;;;3.80;3.60;;;0.70;99.90;;;;;;5087417;28;20220;-75
2021/01/24 05:32:51;;;;;;;3.42;3.22;;;0.70;99.90;;;;;;5084628;28;20735;-75
2021/01/24 05:35:18;;;;;;;3.58;3.40;;;0.60;99.90;;;;;;5089566;28;20305;-75
2021/01/24 05:37:46;;;;;;;4.00;3.80;;;0.60;99.90;;;;;;5093986;28;20212;-76
2021/01/24 05:40:15;;;;;;;3.97;3.78;;;0.60;99.90;;;;;;5098571;28;20242;-75
2021/01/24 05:42:42;;;;;;;3.58;3.38;;;0.60;99.90;;;;;;5097706;28;20243;-75
2021/01/24 05:45:10;;;;;;;4.15;3.95;;;0.60;99.90;;;;;;5092293;28;20220;-75
2021/01/24 05:47:38;;;;;;;4.00;3.80;;;0.60;99.90;;;;;;5092260;28;20220;-75
2021/01/24 05:50:12;;;;;;;4.30;4.10;;;0.50;99.90;;;;;;5095406;28;20245;-75
2021/01/24 05:52:40;;;;;;;3.92;3.67;;;0.50;99.90;;;;;;5088736;28;20215;-75
2021/01/24 05:55:08;;;;;;;4.10;3.90;;;0.40;99.90;;;;;;5086497;28;20725;-74
2021/01/24 05:57:39;;;;;;;4.05;3.85;;;0.30;99.90;;;;;;5088162;28;20224;-75
2021/01/24 06:00:07;;;;;;;3.50;3.30;;;0.30;99.90;;;;;;5093191;28;20509;-76
2021/01/24 06:02:36;;;;;;;3.70;3.50;;;0.40;99.90;;;;;;5090546;28;20390;-74
2021/01/24 06:05:05;;;;;;;3.83;3.63;;;0.40;99.90;;;;;;5084954;28;20236;-76
2021/01/24 06:07:33;;;;;;;3.58;3.42;;;0.50;99.90;;;;;;5079449;28;20343;-76
2021/01/24 06:10:00;;;;;;;4.00;3.80;;;0.50;99.90;;;;;;5104284;28;20224;-75
2021/01/24 06:12:27;;;;;;;4.20;4.00;;;0.60;99.90;;;;;;5092625;28;20232;-76
2021/01/24 06:14:56;;;;;;;3.47;3.35;;;0.60;99.90;;;;;;5093332;28;20731;-75
2021/01/24 06:17:29;;;;;;;2.83;2.72;;;0.60;99.90;;;;;;5092614;28;20602;-75
2021/01/24 06:20:00;;;;;;;4.28;4.03;;;0.60;99.90;;;;;;5093159;28;20256;-76
2021/01/24 06:22:33;;;;;;;3.15;3.05;;;0.60;99.90;;;;;;5096017;28;20225;-76
2021/01/24 06:25:05;;;;;;;3.97;3.78;;;0.60;99.90;;;;;;5093811;28;20221;-75
2021/01/24 06:27:37;;;;;;;3.75;3.55;;;0.50;99.90;;;;;;5093390;28;20224;-75
2021/01/24 06:30:09;;;;;;;3.53;3.33;;;0.40;99.90;;;;;;5092958;28;20302;-76
2021/01/24 06:32:36;;;;;;;3.97;3.78;;;0.50;99.90;;;;;;5095811;28;20224;-75
2021/01/24 06:35:20;;;;;;;4.07;2.75;;;0.50;99.90;;;;;;5094650;28;20213;-75
2021/01/24 06:37:48;;;;;;;2.97;2.88;;;0.50;99.90;;;;;;5093118;28;20568;-76
2021/01/24 06:40:23;;;;;;;3.85;3.58;;;0.60;99.90;;;;;;5093575;28;20270;-76
2021/01/24 06:42:55;;;;;;;3.28;3.17;;;0.60;99.90;;;;;;5094823;28;20216;-75
2021/01/24 06:45:44;;;;;;;3.47;3.28;;;0.60;99.90;;;;;;5093903;28;20233;-76
2021/01/24 06:48:16;;;;;;;3.70;3.47;;;0.60;99.90;;;;;;5086385;28;20209;-74
2021/01/24 06:50:45;;;;;;;3.53;3.33;;;0.70;99.90;;;;;;5095015;28;20312;-75
2021/01/24 06:53:14;;;;;;;3.50;3.30;;;0.70;99.90;;;;;;5095254;28;20221;-75
2021/01/24 06:55:53;;;;;;;3.42;3.22;;;0.70;99.90;;;;;;5095519;28;20223;-75
2021/01/24 06:58:27;;;;;;;3.53;3.33;;;0.60;99.90;;;;;;5095305;28;20354;-76
2021/01/24 07:01:24;;;;;;;3.05;2.95;;;0.60;99.90;;;;;;5093591;28;20221;-72
2021/01/24 07:04:24;;;;;;;3.05;2.92;;;0.60;99.90;;;;;;5100473;28;20570;-75
2021/01/24 07:06:51;;;;;;;3.15;3.00;;;0.60;99.90;;;;;;5093685;28;20209;-75
2021/01/24 07:09:39;;;;;;;3.40;3.20;;;0.60;99.90;;;;;;5088058;28;20221;-75
2021/01/24 07:12:07;;;;;;;3.70;3.50;;;0.70;99.90;;;;;;5091362;28;20744;-74
2021/01/24 07:14:51;;;;;;;3.63;3.42;;;0.70;99.90;;;;;;5088218;28;20217;-75
2021/01/24 07:17:20;;;;;;;3.90;3.70;;;0.70;99.90;;;;;;5092318;28;20282;-76
2021/01/24 07:19:48;;;;;;;3.95;3.75;;;0.80;99.90;;;;;;5097797;28;20227;-77
2021/01/24 07:22:16;;;;;;;3.75;3.55;;;0.80;99.90;;;;;;5092256;28;20722;-75
2021/01/24 07:24:46;;;;;;;3.78;3.58;;;0.80;99.90;;;;;;5095641;28;20274;-75
2021/01/24 07:27:14;;;;;;;3.85;3.65;;;0.80;99.90;;;;;;5094246;28;20229;-74
2021/01/24 07:29:40;;;;;;;4.13;3.92;;;0.90;99.90;;;;;;5089962;28;20205;-75
2021/01/24 07:32:08;;;;;;;3.60;3.40;;;0.90;99.90;;;;;;5091612;28;20217;-74
2021/01/24 07:34:36;;;;;;;4.03;3.83;;;0.90;99.90;;;;;;5090398;28;20229;-76
2021/01/24 07:37:04;;;;;;;4.13;3.88;;;0.90;99.90;;;;;;5094670;28;20213;-75
2021/01/24 07:39:32;;;;;;;4.40;4.10;;;1.00;99.90;;;;;;5096470;28;20667;-74
2021/01/24 07:41:59;;;;;;;4.75;4.45;;;1.00;99.90;;;;;;5095381;28;21634;-75
2021/01/24 07:44:26;;;;;;;3.97;3.70;;;1.10;99.90;;;;;;5094541;28;20229;-75
2021/01/24 07:46:53;;;;;;;4.07;3.88;;;1.10;99.90;;;;;;5098123;28;20270;-74
2021/01/24 07:49:19;;;;;;;3.95;3.75;;;1.10;99.90;;;;;;5091602;28;20551;-75
2021/01/24 07:51:47;;;;;;;3.50;3.30;;;1.20;99.90;;;;;;5098114;28;20228;-74
2021/01/24 07:54:15;;;;;;;3.10;2.90;;;1.20;99.90;;;;;;5093956;28;20214;-75
2021/01/24 07:56:42;;;;;;;3.53;3.33;;;1.20;99.90;;;;;;5109104;28;20221;-75
2021/01/24 07:59:09;;;;;;;4.30;3.97;;;1.30;99.90;;;;;;5093036;28;20300;-75
2021/01/24 08:01:36;;;;;;;3.60;3.30;;;1.40;99.90;;;;;;5092321;28;20229;-75
2021/01/24 08:04:04;;;;;;;4.10;3.90;;;1.40;99.90;;;;;;5095121;28;20224;-74
2021/01/24 08:06:32;;;;;;;4.00;3.65;;;1.50;99.90;;;;;;5094350;28;20256;-75
2021/01/24 08:09:00;;;;;;;4.20;4.00;;;1.60;99.90;;;;;;5092149;28;20244;-75
2021/01/24 08:11:28;;;;;;;3.83;3.53;;;1.70;99.90;;;;;;5091583;28;20229;-73
2021/01/24 08:13:55;;;;;;;3.78;3.47;;;1.60;99.90;;;;;;5094622;28;20229;-75
2021/01/24 08:16:24;;;;;;;4.38;4.07;;;1.60;99.90;;;;;;5091943;28;20413;-75
2021/01/24 08:18:54;;;;;;;4.32;4.10;;;1.70;99.90;;;;;;5094044;28;20217;-75
2021/01/24 08:21:21;;;;;;;5.25;4.85;;;1.80;99.90;;;;;;5094776;28;20240;-74
2021/01/24 08:23:49;;;;;;;5.47;5.03;;;1.90;99.90;;;;;;5089926;28;20703;-74
2021/01/24 08:26:18;;;;;;;5.22;4.82;;;1.90;99.90;;;;;;5092956;28;20286;-76
2021/01/24 08:28:46;;;;;;;4.57;4.18;;;2.00;99.90;;;;;;5089427;28;20271;-77
2021/01/24 08:31:17;;;;;;;5.28;4.85;;;2.40;99.90;;;;;;5086004;28;20237;-76
2021/01/24 08:33:45;;;;;;;5.00;4.70;;;3.30;99.90;;;;;;5095993;28;20224;-74
2021/01/24 08:36:14;;;;;;;6.28;5.78;;;3.70;99.90;;;;;;5091937;28;20208;-76
2021/01/24 08:38:42;;;;;;;6.30;5.80;;;3.90;99.90;;;;;;5096084;28;20752;-75
2021/01/24 08:41:09;;;;;;;5.05;4.75;;;3.90;99.90;;;;;;5091824;28;20263;-76
2021/01/24 08:43:38;;;;;;;4.50;4.20;;;3.90;99.90;;;;;;5089326;28;20225;-73
2021/01/24 08:46:25;;;;;;;4.28;3.97;;;3.80;99.90;;;;;;5087758;28;20311;-76
2021/01/24 08:49:02;;;;;;;4.40;4.05;;;3.80;99.90;;;;;;5098929;28;20205;-75
2021/01/24 08:51:46;;;;;;;13.73;9.57;;;3.80;99.90;;;;;;5096089;28;20290;-76
2021/01/24 08:54:29;;;;;;;8.73;7.65;;;3.60;99.90;;;;;;5088962;28;20228;-76
2021/01/24 08:57:13;;;;;;;8.82;7.20;;;3.60;99.90;;;;;;5090005;28;20240;-76
2021/01/24 08:59:57;;;;;;;6.80;6.20;;;3.40;99.90;;;;;;5088285;28;20216;-76
2021/01/24 09:02:31;;;;;;;5.50;5.10;;;3.20;99.90;;;;;;5089906;28;20223;-76
2021/01/24 09:04:58;;;;;;;4.70;4.40;;;3.10;99.90;;;;;;5086904;28;20310;-74
2021/01/24 09:07:36;;;;;;;4.40;4.10;;;3.00;99.90;;;;;;5088120;28;20232;-75
2021/01/24 09:10:17;;;;;;;4.75;4.45;;;3.10;99.90;;;;;;5085792;28;20266;-75
2021/01/24 09:12:45;;;;;;;4.22;3.92;;;3.20;99.90;;;;;;5081346;28;20229;-76
2021/01/24 09:15:13;;;;;;;4.63;4.32;;;3.30;99.90;;;;;;5087768;28;20527;-76
2021/01/24 09:17:40;;;;;;;5.22;4.82;;;3.40;99.90;;;;;;5092575;28;20221;-76
2021/01/24 09:20:08;;;;;;;4.70;4.18;;;3.50;99.90;;;;;;5080886;28;20264;-75
2021/01/24 09:22:35;;;;;;;4.28;3.97;;;3.50;99.90;;;;;;5087501;28;20227;-76
2021/01/24 09:25:02;;;;;;;4.03;3.78;;;3.60;99.90;;;;;;5089484;28;20246;-76
2021/01/24 09:27:29;;;;;;;4.05;3.75;;;3.70;99.90;;;;;;5081364;28;20631;-76
2021/01/24 09:29:55;;;;;;;4.38;4.07;;;3.80;99.90;;;;;;5086912;28;20748;-76
2021/01/24 09:32:23;;;;;;;4.63;4.30;;;3.90;99.90;;;;;;5079822;28;20691;-76
2021/01/24 09:34:49;;;;;;;4.78;4.38;;;4.00;99.90;;;;;;5090571;28;20217;-76
2021/01/24 09:37:16;;;;;;;4.70;4.32;;;4.50;99.90;;;;;;5091277;28;20710;-76
2021/01/24 09:39:42;;;;;;;6.28;5.78;;;5.40;99.90;;;;;;5090860;28;20216;-75
2021/01/24 09:42:09;;;;;;;6.65;5.95;;;6.00;99.90;;;;;;5104184;28;20229;-75
2021/01/24 09:44:36;;;;;;;6.35;5.85;;;6.00;99.90;;;;;;5083218;28;20239;-75
2021/01/24 09:47:02;;;;;;;6.32;5.82;;;5.90;99.90;;;;;;5091145;28;20216;-74
2021/01/24 09:49:30;;;;;;;5.20;4.80;;;5.90;99.90;;;;;;5092261;28;20289;-75
2021/01/24 09:51:56;;;;;;;5.03;4.55;;;6.00;99.90;;;;;;5092737;28;20235;-76
2021/01/24 09:54:23;;;;;;;4.45;4.15;;;6.00;99.90;;;;;;5093047;28;20214;-74
2021/01/24 09:56:51;;;;;;;4.47;4.18;;;6.00;99.90;;;;;;5090880;28;20229;-75
2021/01/24 09:59:17;;;;;;;4.25;3.95;;;5.70;99.90;;;;;;5091998;28;20627;-74
2021/01/24 10:01:45;;;;;;;4.45;4.05;;;5.70;99.90;;;;;;5089820;28;20274;-77
2021/01/24 10:04:12;;;;;;;5.10;4.70;;;6.10;99.90;;;;;;5090545;28;20577;-74
2021/01/24 10:06:39;;;;;;;4.70;4.30;;;6.30;99.90;;;;;;5088221;28;20229;-74
2021/01/24 10:09:06;;;;;;;3.90;3.63;;;6.50;99.90;;;;;;5089393;28;20221;-74
2021/01/24 10:11:34;;;;;;;3.45;3.25;;;6.60;99.90;;;;;;5091747;28;20244;-74
2021/01/24 10:14:00;;;;;;;4.20;3.88;;;6.70;99.90;;;;;;5091933;28;20216;-74
2021/01/24 10:16:29;;;;;;;4.30;3.90;;;6.50;99.90;;;;;;5086760;28;20576;-74
2021/01/24 10:18:56;;;;;;;3.50;3.30;;;6.50;99.90;;;;;;5092159;28;20307;-74
2021/01/24 10:21:22;;;;;;;5.07;3.90;;;6.70;99.90;;;;;;5086985;28;20220;-73
2021/01/24 10:23:50;;;;;;;3.90;3.60;;;6.80;99.90;;;;;;5093098;28;20221;-73
2021/01/24 10:26:16;;;;;;;4.25;3.95;;;7.00;99.90;;;;;;5094674;28;20225;-73
2021/01/24 10:28:43;;;;;;;3.33;3.13;;;7.20;99.90;;;;;;5093105;28;20217;-75
2021/01/24 10:31:09;;;;;;;3.47;3.17;;;7.40;99.90;;;;;;5092920;28;20220;-75
2021/01/24 10:33:36;;;;;;;3.45;3.25;;;7.40;99.90;;;;;;5102911;28;20217;-76
2021/01/24 10:36:03;;;;;;;4.20;3.22;;;7.60;99.90;;;;;;5103952;28;20217;-75
2021/01/24 10:38:30;;;;;;;3.83;3.58;;;7.90;99.90;;;;;;5091830;28;20220;-75
2021/01/24 10:40:58;;;;;;;3.33;3.13;;;8.20;99.90;;;;;;5092755;28;20225;-75
2021/01/24 10:43:24;;;;;;;3.13;2.92;;;8.30;99.90;;;;;;5090606;28;20220;-75
2021/01/24 10:45:51;;;;;;;3.17;2.97;;;8.50;99.90;;;;;;5090660;28;20263;-75
2021/01/24 10:48:17;;;;;;;3.55;3.35;;;8.60;99.90;;;;;;5090525;28;20572;-76
2021/01/24 10:50:44;;;;;;;3.38;3.10;;;8.60;99.90;;;;;;5095101;28;20224;-76
2021/01/24 10:53:11;;;;;;;3.40;3.10;;;8.40;99.90;;;;;;5087989;28;20216;-76
2021/01/24 10:55:37;;;;;;;3.38;3.17;;;8.20;99.90;;;;;;5095673;28;20221;-75
2021/01/24 10:58:05;;;;;;;4.85;4.28;;;8.10;99.90;;;;;;5091103;28;20628;-75
2021/01/24 11:00:32;;;;;;;3.75;3.45;;;8.20;99.90;;;;;;5092543;28;20586;-76
2021/01/24 11:02:59;;;;;;;3.70;3.40;;;8.30;99.90;;;;;;5093751;28;20346;-76
2021/01/24 11:05:26;;;;;;;3.80;3.50;;;8.60;99.90;;;;;;5089273;28;20599;-75
2021/01/24 11:07:52;;;;;;;3.40;3.20;;;8.90;99.90;;;;;;5091595;28;20220;-76
2021/01/24 11:10:19;;;;;;;3.70;3.50;;;8.90;99.90;;;;;;5093221;28;20311;-76
2021/01/24 11:12:46;;;;;;;3.30;3.10;;;8.80;99.90;;;;;;5092169;28;20725;-76
2021/01/24 11:15:14;;;;;;;3.70;3.40;;;8.60;99.90;;;;;;5092367;28;20455;-75
2021/01/24 11:17:41;;;;;;;3.55;3.33;;;8.80;99.90;;;;;;5097071;28;20278;-76
2021/01/24 11:20:08;;;;;;;3.47;3.28;;;8.80;99.90;;;;;;5093013;28;20231;-77
2021/01/24 11:22:37;;;;;;;3.70;3.40;;;8.70;99.90;;;;;;5091282;28;20706;-76
2021/01/24 11:25:04;;;;;;;3.80;3.50;;;8.70;99.90;;;;;;5092874;28;20213;-76
2021/01/24 11:27:30;;;;;;;3.60;3.30;;;8.30;99.90;;;;;;5108642;28;20222;-76
2021/01/24 11:29:57;;;;;;;3.53;3.30;;;8.00;99.90;;;;;;5092838;28;20229;-76
2021/01/24 11:32:24;;;;;;;3.40;3.10;;;7.90;99.90;;;;;;5092703;28;20226;-76
2021/01/24 11:34:51;;;;;;;3.40;3.20;;;7.80;99.90;;;;;;5094620;28;20604;-76
2021/01/24 11:37:17;;;;;;;3.53;3.30;;;7.70;99.90;;;;;;5091900;28;20605;-76
2021/01/24 11:39:44;;;;;;;4.00;3.70;;;7.60;99.90;;;;;;5095917;28;20619;-76
2021/01/24 11:42:11;;;;;;;3.88;3.58;;;7.50;99.90;;;;;;5093240;28;20225;-76
2021/01/24 11:44:37;;;;;;;4.70;3.75;;;7.50;99.90;;;;;;5098067;28;20614;-75
2021/01/24 11:47:05;;;;;;;4.32;4.03;;;7.70;99.90;;;;;;5090918;28;20225;-75
2021/01/24 11:49:32;;;;;;;4.35;4.00;;;7.60;99.90;;;;;;5096792;28;20213;-76
2021/01/24 11:51:59;;;;;;;3.83;3.53;;;7.50;99.90;;;;;;5092299;28;20938;-76
2021/01/24 11:54:25;;;;;;;4.50;4.20;;;7.80;99.90;;;;;;5091321;28;20255;-75
2021/01/24 11:56:52;;;;;;;4.18;3.78;;;8.00;99.90;;;;;;5095565;28;20214;-76
2021/01/24 11:59:19;;;;;;;4.10;3.80;;;8.30;99.90;;;;;;5092111;28;20222;-75
2021/01/24 12:01:45;;;;;;;4.38;3.97;;;8.50;99.90;;;;;;5091360;28;20270;-75
2021/01/24 12:04:12;;;;;;;4.32;3.92;;;8.70;99.90;;;;;;5093844;28;20221;-75
2021/01/24 12:06:39;;;;;;;4.88;4.47;;;9.20;99.90;;;;;;5091875;28;20225;-74
2021/01/24 12:09:06;;;;;;;4.32;4.00;;;9.40;99.90;;;;;;5093570;28;20217;-75
2021/01/24 12:11:33;;;;;;;4.60;4.20;;;9.30;99.90;;;;;;5097280;28;20225;-74
2021/01/24 12:14:00;;;;;;;3.72;3.42;;;9.30;99.90;;;;;;5091692;28;20221;-75
2021/01/24 12:16:26;;;;;;;3.60;3.30;;;9.30;99.90;;;;;;5092295;28;20237;-74
2021/01/24 12:18:53;;;;;;;4.05;3.75;;;9.20;99.90;;;;;;5104244;28;20208;-76
2021/01/24 12:21:19;;;;;;;3.45;3.25;;;9.10;99.90;;;;;;5102098;28;20232;-74
2021/01/24 12:23:47;;;;;;;4.18;3.88;;;8.60;99.90;;;;;;5093686;28;20242;-74
2021/01/24 12:26:13;;;;;;;4.10;3.80;;;8.20;99.90;;;;;;5090116;28;20221;-75
2021/01/24 12:28:40;;;;;;;4.32;4.03;;;8.10;99.90;;;;;;5096413;28;20227;-74
2021/01/24 12:31:07;;;;;;;3.72;3.47;;;8.30;99.90;;;;;;5092178;28;20589;-74
2021/01/24 12:33:33;;;;;;;4.18;3.88;;;8.30;99.90;;;;;;5087963;28;20230;-75
2021/01/24 12:36:00;;;;;;;3.85;3.55;;;8.40;99.90;;;;;;5093280;28;20227;-75
2021/01/24 12:38:26;;;;;;;3.65;3.42;;;8.30;99.90;;;;;;5091535;28;20270;-74
2021/01/24 12:40:54;;;;;;;5.05;3.55;;;8.30;99.90;;;;;;5090448;28;20220;-74
2021/01/24 12:43:20;;;;;;;4.07;3.70;;;8.20;99.90;;;;;;5093120;28;20221;-74
2021/01/24 12:45:47;;;;;;;5.05;3.67;;;7.90;99.90;;;;;;5092960;28;20209;-74
2021/01/24 12:48:13;;;;;;;3.88;3.47;;;7.80;99.90;;;;;;5092366;28;20252;-75
2021/01/24 12:50:40;;;;;;;4.38;3.58;;;7.70;99.90;;;;;;5095010;28;20212;-74
2021/01/24 12:53:07;;;;;;;4.00;3.70;;;7.70;99.90;;;;;;5093870;28;20229;-74
2021/01/24 12:55:33;;;;;;;3.58;3.33;;;7.80;99.90;;;;;;5092450;28;20239;-75
2021/01/24 12:58:01;;;;;;;3.97;3.67;;;7.80;99.90;;;;;;5094161;28;20619;-75
2021/01/24 13:00:27;;;;;;;3.70;3.40;;;7.80;99.90;;;;;;5089158;28;20270;-75
2021/01/24 13:02:54;;;;;;;4.47;4.07;;;7.70;99.90;;;;;;5092606;28;20209;-75
2021/01/24 13:05:20;;;;;;;4.30;3.90;;;7.70;99.90;;;;;;5095772;28;20213;-75